Time;durP1;ratioP1;P1;durP2;ratioP2;P2;SDS_P1;SDS_P2;PMS_P1;PMS_P2;Temp;Humidity;BMP_temperature;BMP_pressure;BME280_temperature;BME280_humidity;BME280_pressure;Samples;Min_cycle;Max_cycle;Signal;HPM_P1;HPM_P2
2022/07/04 00:22:52;;;;;;;;;;;;;;;22.72;44.41;102040.13;6330805;22;19950;-85
2022/07/04 03:00:32;;;;;;;;;;;;;;;22.55;45.60;101992.25;6182347;23;19927;-85
2022/07/04 03:03:46;;;;;;;;;;;;;;;22.54;45.31;101991.38;6151881;23;19954;-85
2022/07/04 04:02:56;;;;;;;;;;;;;;;22.58;45.81;102013.19;6336549;22;19949;-85
2022/07/04 04:05:43;;;;;;;;;;;;;;;22.57;45.89;102009.69;6282093;22;19903;-85
2022/07/04 05:38:15;;;;;;;;;;;;;;;23.32;45.63;102068.28;6277672;22;19923;31
2022/07/04 05:44:05;;;;;;;;;;;;;;;23.32;45.27;102051.63;6300271;22;19945;-83
2022/07/04 05:46:37;;;;;;;;;;;;;;;23.31;45.26;102052.53;6276451;22;19903;-83
2022/07/04 05:52:27;;;;;;;;;;;;;;;23.36;45.08;102053.31;6305362;22;19941;-83
2022/07/04 06:23:13;;;;;;;;;;;;;;;23.54;44.10;102050.44;6292202;22;19903;-83
2022/07/04 06:25:58;;;;;;;;;;;;;;;23.55;44.17;102044.28;6227862;22;19938;-84
2022/07/04 08:12:50;;;;;;;;;;;;;;;23.80;43.20;102092.09;6304072;22;19910;-85
2022/07/04 09:43:58;;;;;;;;;;;;;;;23.86;42.68;102150.72;6318633;22;19910;-84
2022/07/04 11:18:51;;;;;;;;;;;;;;;23.79;42.08;102137.66;6335434;22;19913;-84
2022/07/04 11:21:57;;;;;;;;;;;;;;;23.80;41.79;102135.91;6246442;23;19934;-84
2022/07/04 11:24:50;;;;;;;;;;;;;;;23.81;42.15;102137.66;6245812;23;19908;-84
2022/07/04 11:27:36;;;;;;;;;;;;;;;23.80;41.93;102135.91;6210949;23;19912;-84
2022/07/04 11:36:23;;;;;;;;;;;;;;;23.81;41.62;102129.75;6272224;23;19918;-85
2022/07/04 11:38:57;;;;;;;;;;;;;;;23.81;41.80;102135.88;6273979;22;19907;-85
2022/07/04 11:45:02;;;;;;;;;;;;;;;23.83;41.54;102142.91;6209956;23;19898;-85
2022/07/04 11:47:49;;;;;;;;;;;;;;;23.81;41.63;102133.25;6267315;23;19916;-85
2022/07/04 16:05:47;;;;;;;;;;;;;;;24.26;39.38;102068.53;6265044;22;19953;-79
2022/07/04 16:08:12;;;;;;;;;;;;;;;24.25;39.30;102070.28;6250423;22;19911;-79
2022/07/04 16:10:38;;;;;;;;;;;;;;;24.25;39.51;102070.28;6225570;22;20001;-80
2022/07/04 16:13:03;;;;;;;;;;;;;;;24.27;39.61;102072.91;6251002;22;19922;-77
2022/07/04 16:15:28;;;;;;;;;;;;;;;24.28;39.74;102065.00;6225385;22;19911;-80
2022/07/04 16:17:53;;;;;;;;;;;;;;;24.26;39.02;102063.25;6225363;22;19911;-78
2022/07/04 16:20:21;;;;;;;;;;;;;;;24.25;38.99;102069.44;6250278;22;19907;-77
2022/07/04 16:22:46;;;;;;;;;;;;;;;24.22;39.17;102071.22;6249705;22;19961;-77
2022/07/04 16:25:11;;;;;;;;;;;;;;;24.23;38.99;102072.94;6251720;22;19915;-78
2022/07/04 16:27:37;;;;;;;;;;;;;;;24.25;39.18;102069.44;6227445;22;19911;-80
2022/07/04 16:30:02;;;;;;;;;;;;;;;24.26;39.23;102065.91;6228748;22;20323;-84
2022/07/04 16:32:28;;;;;;;;;;;;;;;24.25;39.27;102065.03;6237483;22;19911;-82
2022/07/04 16:34:53;;;;;;;;;;;;;;;24.24;38.59;102063.31;6242767;22;19911;-78
2022/07/04 16:37:19;;;;;;;;;;;;;;;24.22;38.94;102062.47;6244806;22;19910;-79
2022/07/04 16:39:44;;;;;;;;;;;;;;;24.20;39.06;102057.22;6268807;22;19950;-80
2022/07/04 16:42:09;;;;;;;;;;;;;;;24.20;39.45;102061.63;6266064;22;19961;-82
2022/07/04 16:44:35;;;;;;;;;;;;;;;24.18;39.07;102060.78;6234919;22;19919;-81
2022/07/04 16:47:00;;;;;;;;;;;;;;;24.19;39.10;102068.66;6230948;22;20242;-80
2022/07/04 16:49:25;;;;;;;;;;;;;;;24.18;38.93;102059.03;6229055;22;19998;-82
2022/07/04 16:51:50;;;;;;;;;;;;;;;24.18;39.21;102056.41;6229197;22;19912;-81
2022/07/04 16:54:16;;;;;;;;;;;;;;;24.19;39.09;102057.25;6228942;22;19951;-80
2022/07/04 16:56:41;;;;;;;;;;;;;;;24.19;39.08;102060.78;6228146;22;19966;-80
2022/07/04 16:59:06;;;;;;;;;;;;;;;24.19;39.02;102057.25;6229246;22;19918;-79
2022/07/04 17:01:32;;;;;;;;;;;;;;;24.20;39.28;102057.22;6248831;22;19907;-82
2022/07/04 17:03:57;;;;;;;;;;;;;;;24.20;39.14;102061.63;6222955;23;19931;-84
2022/07/04 17:06:22;;;;;;;;;;;;;;;24.18;38.94;102058.16;6197487;23;19923;-84
2022/07/04 17:08:47;;;;;;;;;;;;;;;24.18;39.04;102072.16;6198232;23;19919;-86
2022/07/04 17:11:13;;;;;;;;;;;;;;;24.19;38.79;102062.50;6197360;23;19912;-85
2022/07/04 17:13:43;;;;;;;;;;;;;;;24.18;38.30;102059.03;6248149;23;20243;-87
2022/07/04 17:16:08;;;;;;;;;;;;;;;24.18;38.19;102064.28;6248743;23;20035;-86
2022/07/04 17:18:34;;;;;;;;;;;;;;;24.16;37.76;102068.69;6222942;23;19919;-85
2022/07/04 17:20:59;;;;;;;;;;;;;;;24.17;37.98;102066.94;6247525;23;19953;-85
2022/07/04 17:23:25;;;;;;;;;;;;;;;24.17;37.55;102069.56;6197737;23;19918;-85
2022/07/04 17:25:51;;;;;;;;;;;;;;;24.17;37.21;102075.72;6197351;23;19961;-85
2022/07/04 17:28:16;;;;;;;;;;;;;;;24.15;37.38;102072.25;6222372;23;19912;-82
2022/07/04 17:30:43;;;;;;;;;;;;;;;24.15;36.83;102077.50;6222018;23;19918;-82
2022/07/04 17:33:08;;;;;;;;;;;;;;;24.14;36.61;102067.84;6223200;23;20003;-82
2022/07/04 17:35:34;;;;;;;;;;;;;;;24.14;36.66;102072.25;6223717;23;20583;-84
2022/07/04 17:37:59;;;;;;;;;;;;;;;24.14;36.33;102069.63;6222804;23;20216;-84
2022/07/04 17:40:25;;;;;;;;;;;;;;;24.11;36.27;102078.44;6247457;23;19958;-84
2022/07/04 17:42:50;;;;;;;;;;;;;;;24.10;36.01;102081.94;6222237;23;19919;-84
2022/07/04 17:45:16;;;;;;;;;;;;;;;24.09;36.02;102080.22;6222451;23;19920;-84
2022/07/04 17:47:41;;;;;;;;;;;;;;;24.10;36.69;102081.09;6247304;23;19912;-85
2022/07/04 17:50:07;;;;;;;;;;;;;;;24.10;36.57;102076.69;6248566;23;19918;-84
2022/07/04 17:52:32;;;;;;;;;;;;;;;24.09;36.07;102079.38;6249529;22;19929;-83
2022/07/04 17:54:57;;;;;;;;;;;;;;;24.07;36.40;102082.00;6249279;23;20244;-82
2022/07/04 17:57:23;;;;;;;;;;;;;;;24.08;36.28;102078.47;6247183;23;19917;-80
2022/07/04 17:59:48;;;;;;;;;;;;;;;24.07;36.31;102079.38;6196356;22;19989;-83
2022/07/04 18:02:14;;;;;;;;;;;;;;;24.08;36.70;102089.00;6247281;23;19965;-84
2022/07/04 18:04:39;;;;;;;;;;;;;;;24.09;36.70;102082.00;6247782;23;19916;-82
2022/07/04 18:07:04;;;;;;;;;;;;;;;24.11;37.15;102083.72;6248574;23;20214;-84
2022/07/04 18:09:31;;;;;;;;;;;;;;;24.08;37.12;102086.38;6247362;23;19914;-85
2022/07/04 18:11:56;;;;;;;;;;;;;;;24.08;36.97;102082.88;6247600;23;19908;-84
2022/07/04 18:14:21;;;;;;;;;;;;;;;24.08;37.27;102085.50;6221901;23;19912;-85
2022/07/04 18:16:46;;;;;;;;;;;;;;;24.07;37.39;102089.91;6247358;23;20240;-84
2022/07/04 18:19:12;;;;;;;;;;;;;;;24.09;37.65;102089.88;6247079;23;19994;-85
2022/07/04 18:21:37;;;;;;;;;;;;;;;24.10;37.36;102081.09;6221813;23;19965;-85
2022/07/04 18:24:02;;;;;;;;;;;;;;;24.10;37.25;102092.47;6222144;23;19912;-84
2022/07/04 18:26:28;;;;;;;;;;;;;;;24.09;37.25;102093.38;6247010;23;19915;-85
2022/07/04 18:28:53;;;;;;;;;;;;;;;24.08;37.12;102096.88;6221970;23;19912;-85
2022/07/04 18:31:19;;;;;;;;;;;;;;;24.09;37.13;102103.03;6246020;23;19911;-86
2022/07/04 18:33:44;;;;;;;;;;;;;;;24.10;37.37;102107.38;6247393;23;19908;-84
2022/07/04 18:36:09;;;;;;;;;;;;;;;24.09;37.20;102103.91;6248642;23;20221;-85
2022/07/04 18:38:35;;;;;;;;;;;;;;;23.84;37.96;102106.03;6221783;23;20240;-82
2022/07/04 18:43:46;;;;;;;;;;;;;;;23.46;38.42;102103.97;6232445;23;20313;-78
2022/07/04 18:46:11;;;;;;;;;;;;;;;23.63;38.09;102109.88;6247550;23;19919;-77
2022/07/04 18:48:38;;;;;;;;;;;;;;;23.74;37.64;102107.94;6222607;23;19918;-77
2022/07/04 18:51:03;;;;;;;;;;;;;;;23.83;37.36;102106.09;6262505;23;19908;-84
2022/07/04 18:53:29;;;;;;;;;;;;;;;23.77;37.61;102107.03;6264164;23;20363;-82
2022/07/04 18:55:58;;;;;;;;;;;;;;;23.82;37.58;102113.09;6259409;23;19907;-82
2022/07/04 18:58:23;;;;;;;;;;;;;;;23.85;37.57;102107.81;6256061;22;19907;-82
2022/07/04 19:00:49;;;;;;;;;;;;;;;23.84;37.32;102119.19;6224554;23;19915;-84
2022/07/04 19:03:14;;;;;;;;;;;;;;;23.83;37.44;102117.47;6222017;23;19950;-80
2022/07/04 19:05:40;;;;;;;;;;;;;;;23.82;37.88;102120.97;6246939;23;20340;-83
2022/07/04 19:08:06;;;;;;;;;;;;;;;23.82;37.66;102113.09;6245873;23;20348;-83
2022/07/04 19:10:31;;;;;;;;;;;;;;;23.80;37.76;102120.13;6246685;23;19907;-83
2022/07/04 19:12:56;;;;;;;;;;;;;;;23.77;37.87;102118.41;6221738;23;19995;-83
2022/07/04 19:15:24;;;;;;;;;;;;;;;23.76;37.85;102121.94;6247385;23;20342;-82
2022/07/04 19:17:59;;;;;;;;;;;;;;;23.75;38.12;102116.69;6223408;23;19915;-83
2022/07/04 19:20:26;;;;;;;;;;;;;;;23.77;38.00;102120.19;6249516;22;20444;-82
2022/07/04 19:22:52;;;;;;;;;;;;;;;23.77;38.23;102118.41;6249160;23;19907;-83
2022/07/04 19:25:17;;;;;;;;;;;;;;;23.79;38.28;102121.03;6247272;23;19912;-83
2022/07/04 19:27:43;;;;;;;;;;;;;;;23.80;38.43;102117.50;6246008;23;19907;-84
2022/07/04 19:30:09;;;;;;;;;;;;;;;23.77;38.65;102121.03;6246843;23;19911;-83
2022/07/04 19:32:35;;;;;;;;;;;;;;;23.74;38.90;102118.44;6246949;23;19914;-80
2022/07/04 19:35:01;;;;;;;;;;;;;;;23.72;38.89;102117.59;6246333;23;19915;-83
2022/07/04 19:37:39;;;;;;;;;;;;;;;23.71;39.28;102125.50;6247335;23;19907;-82
2022/07/04 19:40:14;;;;;;;;;;;;;;;23.70;39.10;102131.66;6221383;23;19918;-82
2022/07/04 19:42:40;;;;;;;;;;;;;;;23.69;39.04;102129.91;6246409;23;19982;-82
2022/07/04 19:45:06;;;;;;;;;;;;;;;23.67;39.43;102132.59;6246164;23;20009;-82
2022/07/04 19:47:31;;;;;;;;;;;;;;;23.67;39.28;102127.31;6248759;22;19908;-80
2022/07/04 19:49:57;;;;;;;;;;;;;;;23.65;39.27;102128.22;6248296;23;19914;-84
2022/07/04 19:52:28;;;;;;;;;;;;;;;23.65;39.17;102126.47;6196413;23;19912;-84
2022/07/04 19:54:54;;;;;;;;;;;;;;;23.66;39.38;102132.59;6247058;23;19914;-85
2022/07/04 19:57:20;;;;;;;;;;;;;;;23.66;39.63;102138.72;6246894;23;19907;-85
2022/07/04 19:59:45;;;;;;;;;;;;;;;23.66;39.75;102137.84;6248677;22;20341;-85
2022/07/04 20:02:10;;;;;;;;;;;;;;;23.66;39.85;102132.59;6248967;23;19914;-86
2022/07/04 20:04:36;;;;;;;;;;;;;;;23.64;39.96;102140.50;6228061;22;20554;-84
2022/07/04 20:07:01;;;;;;;;;;;;;;;23.64;40.05;102139.63;6254211;22;19918;-86
2022/07/04 20:09:27;;;;;;;;;;;;;;;23.64;39.90;102142.25;6280365;22;19912;-85
2022/07/04 20:11:52;;;;;;;;;;;;;;;23.64;40.15;102147.50;6227873;22;20316;-85
2022/07/04 20:14:18;;;;;;;;;;;;;;;23.62;39.89;102145.75;6254036;22;19984;-84
2022/07/04 20:16:44;;;;;;;;;;;;;;;23.62;40.37;102148.38;6229104;22;20294;-84
2022/07/04 20:19:10;;;;;;;;;;;;;;;23.62;39.89;102147.53;6253567;22;19976;-85
2022/07/04 20:21:35;;;;;;;;;;;;;;;23.61;40.30;102162.44;6228132;22;20213;-84
2022/07/04 20:24:00;;;;;;;;;;;;;;;23.61;40.15;102165.06;6278987;22;19911;-83
2022/07/04 20:26:25;;;;;;;;;;;;;;;23.60;40.53;102165.97;6253709;22;19956;-83
2022/07/04 20:28:51;;;;;;;;;;;;;;;23.58;40.38;102170.38;6229148;22;20312;-84
2022/07/04 20:31:16;;;;;;;;;;;;;;;23.58;40.33;102166.84;6228245;22;19951;-84
2022/07/04 20:33:41;;;;;;;;;;;;;;;23.57;40.54;102173.00;6253407;22;20234;-83
2022/07/04 20:36:07;;;;;;;;;;;;;;;23.56;40.62;102164.25;6229340;22;19911;-83
2022/07/04 20:38:32;;;;;;;;;;;;;;;23.58;40.32;102174.72;6254684;22;19912;-83
2022/07/04 20:40:58;;;;;;;;;;;;;;;23.59;40.59;102173.84;6254347;22;19914;-85
2022/07/04 20:43:23;;;;;;;;;;;;;;;23.58;40.68;102180.00;6253317;22;19907;-84
2022/07/04 20:45:49;;;;;;;;;;;;;;;23.58;40.57;102169.47;6253860;22;20350;-84
2022/07/04 20:48:14;;;;;;;;;;;;;;;23.57;40.47;102175.63;6253797;22;20286;-84
2022/07/04 20:50:40;;;;;;;;;;;;;;;23.57;40.38;102179.13;6253895;22;19919;-84
2022/07/04 20:53:06;;;;;;;;;;;;;;;23.58;40.55;102177.34;6253686;22;19914;-86
2022/07/04 20:55:31;;;;;;;;;;;;;;;23.56;40.59;102177.41;6228946;22;19911;-85
2022/07/04 20:57:56;;;;;;;;;;;;;;;23.57;40.77;102183.53;6227954;22;19943;-85
2022/07/04 21:00:21;;;;;;;;;;;;;;;23.58;40.72;102182.63;6253624;22;19915;-85
2022/07/04 21:02:46;;;;;;;;;;;;;;;23.57;40.54;102180.88;6227975;22;19912;-85
2022/07/04 21:05:13;;;;;;;;;;;;;;;23.58;40.65;102180.00;6228263;22;20324;-84
2022/07/04 21:07:38;;;;;;;;;;;;;;;23.56;40.47;102187.91;6252708;22;19938;-78
2022/07/04 21:10:04;;;;;;;;;;;;;;;23.56;40.44;102187.91;6292331;22;19929;-83
2022/07/04 21:12:29;;;;;;;;;;;;;;;23.55;40.67;102186.16;6270881;22;19911;-81
2022/07/04 21:14:55;;;;;;;;;;;;;;;23.55;40.50;102180.91;6271369;22;19907;-80
2022/07/04 21:17:20;;;;;;;;;;;;;;;23.54;40.70;102187.06;6232297;22;19918;-81
2022/07/04 21:19:45;;;;;;;;;;;;;;;23.53;40.66;102187.06;6227847;22;20249;-82
2022/07/04 21:22:11;;;;;;;;;;;;;;;23.54;40.63;102184.44;6253020;22;19907;-80
2022/07/04 21:24:36;;;;;;;;;;;;;;;23.53;40.41;102185.31;6226646;22;19911;-79
2022/07/04 21:27:02;;;;;;;;;;;;;;;23.55;40.54;102182.66;6226731;22;19915;-80
2022/07/04 21:29:27;;;;;;;;;;;;;;;23.51;40.43;102179.19;6226620;22;19915;-80
2022/07/04 21:31:56;;;;;;;;;;;;;;;23.51;40.51;102187.09;6252028;22;19918;-80
2022/07/04 21:34:23;;;;;;;;;;;;;;;23.49;40.57;102188.84;6226530;22;19961;-80
2022/07/04 21:36:49;;;;;;;;;;;;;;;23.48;40.77;102187.13;6251996;22;19989;-80
2022/07/04 21:39:14;;;;;;;;;;;;;;;23.51;40.48;102194.09;6278825;22;19907;-79
2022/07/04 21:41:39;;;;;;;;;;;;;;;23.52;40.83;102195.84;6226666;22;19935;-79
2022/07/04 21:44:05;;;;;;;;;;;;;;;23.52;40.88;102196.72;6251732;22;19917;-79
2022/07/04 21:46:30;;;;;;;;;;;;;;;23.51;40.43;102197.59;6226096;22;19919;-79
2022/07/04 21:48:55;;;;;;;;;;;;;;;23.49;40.94;102209.88;6279113;22;20354;-79
2022/07/04 21:51:21;;;;;;;;;;;;;;;23.49;40.93;102204.63;6276939;22;19961;-79
2022/07/04 21:53:46;;;;;;;;;;;;;;;23.50;40.99;102202.88;6251565;22;19942;-79
2022/07/04 21:56:11;;;;;;;;;;;;;;;23.51;40.73;102208.09;6251411;22;19907;-79
2022/07/04 21:58:37;;;;;;;;;;;;;;;23.50;40.70;102206.38;6251442;22;19915;-79
2022/07/04 22:01:02;;;;;;;;;;;;;;;23.50;40.81;102202.88;6228121;22;19918;-81
2022/07/04 22:03:27;;;;;;;;;;;;;;;23.49;41.01;102203.75;6251629;22;19911;-79
2022/07/04 22:05:52;;;;;;;;;;;;;;;23.50;41.06;102206.38;6246155;23;19971;-79
2022/07/04 22:08:18;;;;;;;;;;;;;;;23.49;40.98;102202.00;6246263;23;19922;-78
2022/07/04 22:10:43;;;;;;;;;;;;;;;23.48;41.01;102208.16;6246690;23;19918;-78
2022/07/04 22:13:08;;;;;;;;;;;;;;;23.48;40.93;102205.53;6220981;23;19915;-78
2022/07/04 22:15:33;;;;;;;;;;;;;;;23.48;41.23;102199.41;6221143;23;20347;-78
2022/07/04 22:17:59;;;;;;;;;;;;;;;23.48;41.29;102215.19;6246638;23;19912;-78
2022/07/04 22:20:25;;;;;;;;;;;;;;;23.49;41.26;102215.13;6220927;23;19990;-79
2022/07/04 22:22:50;;;;;;;;;;;;;;;23.48;41.31;102213.41;6220595;23;19956;-79
2022/07/04 22:25:16;;;;;;;;;;;;;;;23.47;41.36;102214.28;6195913;23;19950;-77
2022/07/04 22:27:41;;;;;;;;;;;;;;;23.46;41.46;102214.31;6221178;23;20388;-78
2022/07/04 22:30:07;;;;;;;;;;;;;;;23.45;41.46;102213.44;6247855;23;19912;-78
2022/07/04 22:32:33;;;;;;;;;;;;;;;23.44;41.31;102214.34;6221156;23;19918;-79
2022/07/04 22:34:58;;;;;;;;;;;;;;;23.45;41.51;102209.94;6196783;23;19916;-79
2022/07/04 22:37:23;;;;;;;;;;;;;;;23.44;41.21;102219.59;6222655;23;19911;-78
2022/07/04 22:39:49;;;;;;;;;;;;;;;23.44;41.33;102216.09;6220975;23;20351;-79
2022/07/04 22:42:14;;;;;;;;;;;;;;;23.43;41.26;102212.59;6221136;23;19991;-77
2022/07/04 22:44:39;;;;;;;;;;;;;;;23.42;41.20;102206.47;6195768;23;20297;-79
2022/07/04 22:47:04;;;;;;;;;;;;;;;23.43;41.45;102209.97;6221463;23;19922;-79
2022/07/04 22:49:30;;;;;;;;;;;;;;;23.40;41.59;102208.22;6195898;23;19937;-78
2022/07/04 22:51:55;;;;;;;;;;;;;;;23.39;41.35;102209.13;6196183;23;19939;-78
2022/07/04 22:57:04;;;;;;;;;;;;;;;23.40;41.51;102205.59;6248063;23;19937;-78
2022/07/04 22:59:29;;;;;;;;;;;;;;;23.41;41.65;102212.63;6196129;23;19954;-78
2022/07/04 23:01:55;;;;;;;;;;;;;;;23.38;41.79;102215.25;6195435;23;19962;-79
2022/07/04 23:04:20;;;;;;;;;;;;;;;23.37;41.47;102223.19;6195832;23;19954;-78
2022/07/04 23:06:45;;;;;;;;;;;;;;;23.39;41.52;102208.28;6221280;23;19912;-78
2022/07/04 23:09:10;;;;;;;;;;;;;;;23.38;41.71;102212.63;6195768;23;20328;-79
2022/07/04 23:11:36;;;;;;;;;;;;;;;23.38;41.65;102210.00;6246206;23;19949;-80
2022/07/04 23:14:02;;;;;;;;;;;;;;;23.39;41.41;102218.78;6246313;23;19908;-81
2022/07/04 23:16:27;;;;;;;;;;;;;;;23.38;41.62;102210.00;6220856;23;19915;-81
2022/07/04 23:18:52;;;;;;;;;;;;;;;23.38;41.92;102222.28;6245949;23;19914;-80
2022/07/04 23:21:18;;;;;;;;;;;;;;;23.38;41.90;102211.78;6246342;23;20294;-81
2022/07/04 23:23:43;;;;;;;;;;;;;;;23.38;41.77;102217.88;6221135;23;19918;-80
2022/07/04 23:26:08;;;;;;;;;;;;;;;23.39;41.81;102213.53;6247454;23;19916;-79
2022/07/04 23:28:34;;;;;;;;;;;;;;;23.38;41.74;102217.03;6220711;23;19914;-79
2022/07/04 23:30:59;;;;;;;;;;;;;;;23.37;41.94;102217.94;6195141;23;20002;-79
2022/07/04 23:33:24;;;;;;;;;;;;;;;23.38;41.75;102217.03;6195606;23;19912;-79
2022/07/04 23:35:49;;;;;;;;;;;;;;;23.35;41.91;102210.06;6197374;23;20340;-79
2022/07/04 23:38:15;;;;;;;;;;;;;;;23.37;41.69;102204.81;6222387;23;19915;-79
2022/07/04 23:40:40;;;;;;;;;;;;;;;23.35;42.09;102201.31;6249292;23;19943;-79
2022/07/04 23:43:05;;;;;;;;;;;;;;;23.35;42.08;102206.56;6223815;23;19918;-78
2022/07/04 23:45:31;;;;;;;;;;;;;;;23.32;41.97;102211.84;6222547;23;19920;-78
2022/07/04 23:47:56;;;;;;;;;;;;;;;23.33;41.83;102214.47;6222483;23;19911;-79
2022/07/04 23:50:22;;;;;;;;;;;;;;;23.34;42.07;102215.31;6247522;23;19908;-79
2022/07/04 23:52:47;;;;;;;;;;;;;;;23.33;42.23;102213.59;6247798;23;19919;-79
2022/07/04 23:55:12;;;;;;;;;;;;;;;23.34;42.20;102205.72;6222100;23;19911;-79
2022/07/04 23:57:38;;;;;;;;;;;;;;;23.33;42.08;102213.59;6222032;23;19917;-80
